Update 08.04.19 Menü aufgeräumt und Stützis neue Wetterseite verlinkt
Besuchen Sie den Menüpunkt "Almanach / History" hier gibt es viele interessante Statistiken aus den Daten meiner Wetterstation (seit 2011)

Rindlberg West Mehr Informationen Rindlberg West


Stuetzi - Rindlberg Ost Mehr Informationen Stuetzi - Rindlberg Ost


Regenradar Mehr Informationen rain snow radar


Sie finden meine Wetter-Infos auch auf:

Weather Underground

AWEKAS



METAR-Meldungen aus der Umgebung

Warning: A non-numeric value encountered in /home/.sites/50/site8222718/web/weather28/metar/metarDisplay.php on line 166 Warning: A non-numeric value encountered in /home/.sites/50/site8222718/web/weather28/metar/metarDisplay.php on line 166
   
LOWL - Linz
Aktualisierung: 22-04-2019 19:50
Teilweise bewölkt  
Teilweise bewölkt  
   Wind: Osten 29.6 km/h
Wind: Osten 29.6 km/h
Temperatur: 19°C
Taupunkt: 3°C
Luftfeuchte: 35%
Luftdruck: 1007 hPa
Wolken: Teilweise bewölkt
Sichtbarkeit: Mehr als 10 km
Bewölkung: Teilweise bewölkt
LOWL 221750Z AUTO 08016KT 9999 NSC 19/03 Q1007 NOSIG
LOWW - Vienna
Aktualisierung: 22-04-2019 19:50
Klar  
Klar  
   Wind: Osten 24.1 km/h
Wind: Osten 24.1 km/h
Temperatur: 16°C
Taupunkt: 5°C
Luftfeuchte: 48%
Luftdruck: 1012 hPa
Sichtbarkeit: Mehr als 10 km
Bewölkung: Klar
LOWW 221750Z 09013KT CAVOK 16/05 Q1012 NOSIG
 

Script entwickelt von  Saratoga-weather.org Angepasst für das Template von  Weerstation Leuven